Time;durP1;ratioP1;P1;durP2;ratioP2;P2;SDS_P1;SDS_P2;PMS_P1;PMS_P2;Temp;Humidity;BMP_temperature;BMP_pressure;BME280_temperature;BME280_humidity;BME280_pressure;Samples;Min_cycle;Max_cycle;Signal;HPM_P1;HPM_P2
2023/08/17 00:02:15;;;;;;;6.78;1.40;;;16.90;99.90;;;;;;5056250;28;20413;-81
2023/08/17 00:04:40;;;;;;;2.85;1.27;;;16.20;99.90;;;;;;5055454;28;20628;-80
2023/08/17 00:07:06;;;;;;;4.38;1.15;;;16.80;99.90;;;;;;5058325;28;20048;-82
2023/08/17 00:09:32;;;;;;;5.82;1.27;;;16.80;99.90;;;;;;5055818;28;20135;-82
2023/08/17 00:11:58;;;;;;;5.30;1.02;;;16.80;99.90;;;;;;5058837;28;20041;-81
2023/08/17 00:14:24;;;;;;;5.60;1.23;;;17.40;99.90;;;;;;5053298;28;20420;-81
2023/08/17 00:16:50;;;;;;;4.85;1.20;;;16.80;99.90;;;;;;5055046;28;20056;-80
2023/08/17 00:19:17;;;;;;;3.05;1.20;;;16.80;99.90;;;;;;5051106;28;20049;-81
2023/08/17 00:21:44;;;;;;;5.38;1.10;;;16.80;99.90;;;;;;5041231;28;20052;-81
2023/08/17 00:24:09;;;;;;;4.05;1.30;;;16.80;99.90;;;;;;5044571;28;20040;-81
2023/08/17 00:26:35;;;;;;;3.70;1.42;;;16.80;99.90;;;;;;5050823;28;20063;-81
2023/08/17 00:29:01;;;;;;;4.28;1.30;;;16.80;99.90;;;;;;5048198;28;20037;-82
2023/08/17 00:31:26;;;;;;;7.72;1.40;;;16.80;99.90;;;;;;5044700;28;20044;-81
2023/08/17 00:33:52;;;;;;;4.07;1.17;;;16.80;99.90;;;;;;5042606;28;20037;-81
2023/08/17 00:36:18;;;;;;;2.08;0.75;;;16.80;99.90;;;;;;5052658;28;20028;-81
2023/08/17 00:38:43;;;;;;;5.93;1.60;;;16.80;99.90;;;;;;5043188;28;20495;-80
2023/08/17 00:41:09;;;;;;;4.68;1.30;;;17.50;99.90;;;;;;5056023;28;20041;-82
2023/08/17 00:43:35;;;;;;;9.73;1.20;;;16.70;99.90;;;;;;5047441;28;20114;-81
2023/08/17 00:46:01;;;;;;;3.60;1.08;;;16.70;99.90;;;;;;5056127;28;20352;-81
2023/08/17 00:48:28;;;;;;;1.88;1.15;;;16.70;99.90;;;;;;5053189;28;20041;-81
2023/08/17 00:50:55;;;;;;;3.58;1.30;;;16.70;99.90;;;;;;5056190;28;20037;-80
2023/08/17 00:53:22;;;;;;;4.05;1.05;;;16.70;99.90;;;;;;5048542;28;20036;-80
2023/08/17 00:55:48;;;;;;;6.18;1.10;;;16.70;99.90;;;;;;5054007;28;20037;-81
2023/08/17 00:58:14;;;;;;;4.07;1.30;;;16.70;99.90;;;;;;5047539;28;20040;-81
2023/08/17 01:00:40;;;;;;;1.98;0.95;;;17.50;99.90;;;;;;5054240;28;20041;-80
2023/08/17 01:03:06;;;;;;;5.18;1.35;;;17.50;99.90;;;;;;5058414;28;20396;-81
2023/08/17 01:05:32;;;;;;;4.03;1.10;;;16.70;99.90;;;;;;5057148;28;20679;-81
2023/08/17 01:07:59;;;;;;;5.63;1.30;;;16.80;99.90;;;;;;5063513;28;20033;-81
2023/08/17 01:10:43;;;;;;;2.50;1.40;;;16.60;99.90;;;;;;5055439;28;20094;-81
2023/08/17 01:13:20;;;;;;;4.97;1.23;;;16.60;99.90;;;;;;5057289;28;20084;-80
2023/08/17 01:15:51;;;;;;;4.68;1.27;;;16.60;99.90;;;;;;5069258;28;20087;-79
2023/08/17 01:18:20;;;;;;;4.35;1.25;;;16.60;99.90;;;;;;5055868;28;20091;-80
2023/08/17 01:20:48;;;;;;;2.35;0.93;;;16.50;99.90;;;;;;5047949;28;20476;-80
2023/08/17 01:23:14;;;;;;;1.85;0.80;;;16.50;99.90;;;;;;5056830;28;20064;-80
2023/08/17 01:25:39;;;;;;;3.58;1.25;;;16.60;99.90;;;;;;5053471;28;20071;-79
2023/08/17 01:28:06;;;;;;;4.05;1.23;;;16.50;99.90;;;;;;5057367;28;20037;-79
2023/08/17 01:30:53;;;;;;;7.60;1.73;;;16.50;99.90;;;;;;5049560;28;20559;-80
2023/08/17 01:33:27;;;;;;;3.70;1.35;;;16.50;99.90;;;;;;5041549;28;20048;-80
2023/08/17 01:36:01;;;;;;;4.10;1.63;;;16.50;99.90;;;;;;5047912;28;20067;-80
2023/08/17 01:38:29;;;;;;;5.20;1.13;;;16.50;99.90;;;;;;5052898;28;20040;-80
2023/08/17 01:40:56;;;;;;;3.67;1.48;;;16.40;99.90;;;;;;5051147;28;20040;-79
2023/08/17 01:43:22;;;;;;;6.40;1.80;;;16.40;99.90;;;;;;5056588;28;20051;-79
2023/08/17 01:45:48;;;;;;;3.83;1.08;;;16.50;99.90;;;;;;5057954;28;20448;-80
2023/08/17 01:48:14;;;;;;;2.00;1.13;;;16.40;99.90;;;;;;5063435;28;20086;-79
2023/08/17 01:50:39;;;;;;;3.28;1.42;;;16.40;99.90;;;;;;5060683;28;20155;-80
2023/08/17 01:53:05;;;;;;;4.15;1.52;;;16.50;99.90;;;;;;5053787;28;20056;-80
2023/08/17 01:55:31;;;;;;;6.63;2.15;;;16.30;99.90;;;;;;5062367;28;20075;-79
2023/08/17 01:57:56;;;;;;;3.33;1.63;;;16.30;99.90;;;;;;5048130;28;20460;-79
2023/08/17 02:00:22;;;;;;;2.97;1.20;;;16.30;99.90;;;;;;5044494;28;20554;-80
2023/08/17 02:02:48;;;;;;;4.07;1.98;;;16.30;99.90;;;;;;5042774;28;20068;-80
2023/08/17 02:05:13;;;;;;;3.25;1.63;;;16.90;99.90;;;;;;5043473;28;20045;-79
2023/08/17 02:07:39;;;;;;;3.35;1.30;;;16.30;99.90;;;;;;5043967;28;20116;-80
2023/08/17 02:10:05;;;;;;;4.13;1.40;;;16.30;99.90;;;;;;5053580;28;20040;-79
2023/08/17 02:12:32;;;;;;;5.68;1.30;;;16.30;99.90;;;;;;5045093;28;20819;-79
2023/08/17 02:14:57;;;;;;;6.22;1.35;;;16.30;99.90;;;;;;5042850;28;20052;-79
2023/08/17 02:17:23;;;;;;;2.13;1.20;;;16.30;99.90;;;;;;5044195;28;20063;-80
2023/08/17 02:19:49;;;;;;;1.95;1.10;;;16.30;99.90;;;;;;5054445;28;20041;-79
2023/08/17 02:22:15;;;;;;;1.95;1.20;;;16.30;99.90;;;;;;5049778;28;20102;-81
2023/08/17 02:24:40;;;;;;;5.53;1.70;;;16.30;99.90;;;;;;5044341;28;20033;-80
2023/08/17 02:27:07;;;;;;;7.15;1.73;;;16.30;99.90;;;;;;5045899;28;20543;-79
2023/08/17 02:29:32;;;;;;;4.82;1.20;;;16.20;99.90;;;;;;5043842;28;20052;-79
2023/08/17 02:31:58;;;;;;;2.92;1.48;;;16.20;99.90;;;;;;5046202;28;20040;-80
2023/08/17 02:34:24;;;;;;;4.25;1.45;;;16.20;99.90;;;;;;5056808;28;20506;-81
2023/08/17 02:36:50;;;;;;;5.85;1.70;;;16.20;99.90;;;;;;5055788;28;20037;-81
2023/08/17 02:39:15;;;;;;;6.70;1.63;;;16.10;99.90;;;;;;5054242;28;20099;-80
2023/08/17 02:41:41;;;;;;;5.47;1.40;;;16.10;99.90;;;;;;5050740;28;20049;-80
2023/08/17 02:44:07;;;;;;;4.32;1.40;;;16.10;99.90;;;;;;5061713;28;20065;-81
2023/08/17 02:46:32;;;;;;;3.55;1.38;;;16.10;99.90;;;;;;5054805;28;20041;-80
2023/08/17 02:48:58;;;;;;;4.03;1.70;;;16.00;99.90;;;;;;5047967;28;20845;-79
2023/08/17 02:51:24;;;;;;;3.88;1.20;;;16.00;99.90;;;;;;5048083;28;20047;-80
2023/08/17 02:53:49;;;;;;;4.53;1.52;;;16.00;99.90;;;;;;5048846;28;20041;-79
2023/08/17 02:56:15;;;;;;;4.35;1.50;;;16.00;99.90;;;;;;5055556;28;20044;-80
2023/08/17 02:58:41;;;;;;;3.65;1.20;;;16.00;99.90;;;;;;5054562;28;20053;-81
2023/08/17 03:01:07;;;;;;;5.20;1.52;;;16.00;99.90;;;;;;5049514;28;20142;-79
2023/08/17 03:03:33;;;;;;;2.67;1.23;;;16.00;99.90;;;;;;5046315;28;20032;-81
2023/08/17 03:05:58;;;;;;;4.47;1.60;;;16.00;99.90;;;;;;5052267;28;20044;-80
2023/08/17 03:08:24;;;;;;;4.90;1.42;;;16.00;99.90;;;;;;5055638;28;20039;-80
2023/08/17 03:10:51;;;;;;;2.88;0.82;;;16.00;99.90;;;;;;5034259;28;20048;-81
2023/08/17 03:13:17;;;;;;;5.22;1.20;;;16.00;99.90;;;;;;5035880;28;20126;-80
2023/08/17 03:15:42;;;;;;;3.97;1.15;;;15.90;99.90;;;;;;5055794;28;20567;-81
2023/08/17 03:18:08;;;;;;;2.25;1.13;;;16.10;99.90;;;;;;5051579;28;20053;-80
2023/08/17 03:20:33;;;;;;;1.92;1.17;;;15.90;99.90;;;;;;5052430;28;20047;-81
2023/08/17 03:22:59;;;;;;;3.50;1.50;;;15.90;99.90;;;;;;5047862;28;20036;-81
2023/08/17 03:25:25;;;;;;;8.98;1.63;;;15.90;99.90;;;;;;5048140;28;20047;-80
2023/08/17 03:27:50;;;;;;;2.10;0.98;;;15.90;99.90;;;;;;5053759;28;20040;-81
2023/08/17 03:30:16;;;;;;;3.63;1.23;;;15.90;99.90;;;;;;5051406;28;20040;-80
2023/08/17 03:32:42;;;;;;;4.10;1.10;;;15.90;99.90;;;;;;5054656;28;20049;-80
2023/08/17 03:35:08;;;;;;;5.97;1.48;;;15.90;99.90;;;;;;5049889;28;20504;-80
2023/08/17 03:37:34;;;;;;;4.40;1.15;;;15.90;99.90;;;;;;5056057;28;20596;-80
2023/08/17 03:40:00;;;;;;;4.38;1.05;;;15.80;99.90;;;;;;5056861;28;20037;-80
2023/08/17 03:42:26;;;;;;;2.97;1.30;;;15.90;99.90;;;;;;5035090;28;20090;-80
2023/08/17 03:44:52;;;;;;;4.10;1.15;;;15.90;99.90;;;;;;5058101;28;20041;-79
2023/08/17 03:47:18;;;;;;;4.45;1.70;;;15.80;99.90;;;;;;5047274;28;20654;-80
2023/08/17 03:49:44;;;;;;;7.45;1.17;;;15.80;99.90;;;;;;5052898;28;20040;-81
2023/08/17 03:52:10;;;;;;;5.90;1.20;;;15.80;99.90;;;;;;5058830;28;20052;-80
2023/08/17 03:54:36;;;;;;;6.10;1.60;;;15.80;99.90;;;;;;5052495;28;20043;-81
2023/08/17 03:57:02;;;;;;;4.07;0.77;;;15.80;99.90;;;;;;5048491;28;20047;-81
2023/08/17 03:59:28;;;;;;;3.72;1.15;;;15.80;99.90;;;;;;5044689;28;20036;-82
2023/08/17 04:01:54;;;;;;;5.63;1.50;;;15.80;99.90;;;;;;5052699;28;20048;-81
2023/08/17 04:04:20;;;;;;;3.33;1.00;;;15.80;99.90;;;;;;5042779;28;20036;-80
2023/08/17 04:06:46;;;;;;;1.48;0.88;;;15.80;99.90;;;;;;5052367;28;20118;-79
2023/08/17 04:09:12;;;;;;;2.15;0.73;;;15.80;99.90;;;;;;5045143;28;20147;-82
2023/08/17 04:11:37;;;;;;;4.38;1.30;;;16.00;99.90;;;;;;5042478;28;20053;-79
2023/08/17 04:14:03;;;;;;;3.53;0.77;;;16.00;99.90;;;;;;5043408;28;20037;-81
2023/08/17 04:16:29;;;;;;;6.43;0.98;;;16.60;99.90;;;;;;5046252;28;20056;-81
2023/08/17 04:18:55;;;;;;;6.47;1.13;;;16.20;99.90;;;;;;5057961;28;20679;-81
2023/08/17 04:21:21;;;;;;;4.40;1.38;;;15.80;99.90;;;;;;5059392;28;20067;-80
2023/08/17 04:23:46;;;;;;;3.95;1.25;;;15.70;99.90;;;;;;5057079;28;20551;-81
2023/08/17 04:26:12;;;;;;;4.82;1.15;;;15.70;99.90;;;;;;5043149;28;20873;-81
2023/08/17 04:28:39;;;;;;;3.30;0.95;;;15.70;99.90;;;;;;5053770;28;20033;-82
2023/08/17 04:31:08;;;;;;;2.42;1.10;;;15.70;99.90;;;;;;5059057;28;20053;-80
2023/08/17 04:33:34;;;;;;;3.05;1.10;;;15.70;99.90;;;;;;5044357;28;20044;-80
2023/08/17 04:36:00;;;;;;;11.35;6.07;;;15.80;99.90;;;;;;5045776;28;20404;-81
2023/08/17 04:38:26;;;;;;;7.45;4.38;;;15.70;99.90;;;;;;5052666;28;20043;-81
2023/08/17 04:40:52;;;;;;;25.85;14.57;;;15.80;99.90;;;;;;5058955;28;20040;-80
2023/08/17 04:43:18;;;;;;;10.15;3.85;;;15.70;99.90;;;;;;5058581;28;20052;-79
2023/08/17 04:45:47;;;;;;;3.55;1.85;;;15.70;99.90;;;;;;5059978;28;20041;-79
2023/08/17 04:48:13;;;;;;;3.85;1.00;;;15.70;99.90;;;;;;5055673;28;20112;-80
2023/08/17 04:50:39;;;;;;;4.93;1.30;;;15.70;99.90;;;;;;5057882;28;20755;-80
2023/08/17 04:53:05;;;;;;;2.58;0.90;;;15.70;99.90;;;;;;5052581;28;20049;-82
2023/08/17 04:55:32;;;;;;;3.25;1.15;;;15.70;99.90;;;;;;5065620;28;20040;-81
2023/08/17 04:57:57;;;;;;;3.83;1.35;;;15.70;99.90;;;;;;5052803;28;20053;-80
2023/08/17 05:00:27;;;;;;;6.30;1.27;;;15.70;99.90;;;;;;5058118;28;20055;-79
2023/08/17 05:02:54;;;;;;;5.38;1.55;;;15.70;99.90;;;;;;5053590;28;20069;-80
2023/08/17 05:05:20;;;;;;;2.33;1.10;;;15.70;99.90;;;;;;5052483;28;20045;-80
2023/08/17 05:07:46;;;;;;;3.08;1.70;;;15.70;99.90;;;;;;5049617;28;20044;-78
2023/08/17 05:10:11;;;;;;;4.55;1.15;;;15.70;99.90;;;;;;5052790;28;20037;-80
2023/08/17 05:12:37;;;;;;;3.92;1.33;;;15.70;99.90;;;;;;5059828;28;20052;-80
2023/08/17 05:15:03;;;;;;;3.08;0.98;;;15.70;99.90;;;;;;5048042;28;20036;-80
2023/08/17 05:17:29;;;;;;;3.03;0.93;;;15.70;99.90;;;;;;5058279;28;20526;-80
2023/08/17 05:19:55;;;;;;;3.38;1.17;;;15.70;99.90;;;;;;5052704;28;20045;-79
2023/08/17 05:22:21;;;;;;;5.43;2.85;;;15.70;99.90;;;;;;5053930;28;20098;-80
2023/08/17 05:24:47;;;;;;;18.33;13.60;;;15.70;99.90;;;;;;5061706;28;20080;-79
2023/08/17 05:27:13;;;;;;;7.18;4.72;;;15.70;99.90;;;;;;5052109;28;20484;-79
2023/08/17 05:29:39;;;;;;;4.88;2.05;;;16.00;99.90;;;;;;5053924;28;20057;-79
2023/08/17 05:32:05;;;;;;;2.88;1.52;;;15.70;99.90;;;;;;5066636;28;20319;-80
2023/08/17 05:34:33;;;;;;;6.05;1.20;;;15.70;99.90;;;;;;5061276;28;20049;-78
2023/08/17 05:36:59;;;;;;;5.57;1.50;;;15.70;99.90;;;;;;5049271;28;20477;-79
2023/08/17 05:39:26;;;;;;;1.45;1.05;;;15.70;99.90;;;;;;5053781;28;20043;-81
2023/08/17 05:41:51;;;;;;;15.90;11.02;;;16.30;99.90;;;;;;5046055;28;20476;-81
2023/08/17 05:44:18;;;;;;;17.38;11.55;;;15.80;99.90;;;;;;5056103;28;20052;-80
2023/08/17 05:46:43;;;;;;;8.95;4.03;;;16.40;99.90;;;;;;5069307;28;20494;-79
2023/08/17 05:49:09;;;;;;;6.85;1.73;;;15.90;99.90;;;;;;5042267;28;20045;-80
2023/08/17 05:51:35;;;;;;;3.92;1.17;;;16.50;99.90;;;;;;5054681;28;20048;-80
2023/08/17 05:54:00;;;;;;;5.50;1.15;;;15.80;99.90;;;;;;5057065;28;20040;-80
2023/08/17 05:56:27;;;;;;;7.10;1.30;;;15.80;99.90;;;;;;5054230;28;20045;-80
2023/08/17 05:58:52;;;;;;;5.10;1.25;;;16.10;99.90;;;;;;5043067;28;20890;-80
2023/08/17 06:01:18;;;;;;;4.00;1.40;;;15.80;99.90;;;;;;5041112;28;20037;-80
2023/08/17 06:03:45;;;;;;;3.60;1.48;;;15.90;99.90;;;;;;5042148;28;20041;-79
2023/08/17 06:06:11;;;;;;;2.28;1.40;;;15.90;99.90;;;;;;5041058;28;20048;-81
2023/08/17 06:08:36;;;;;;;4.90;0.93;;;15.90;99.90;;;;;;5041555;28;20045;-82
2023/08/17 06:11:02;;;;;;;4.05;1.10;;;15.90;99.90;;;;;;5042959;28;20041;-80
2023/08/17 06:13:28;;;;;;;4.88;1.30;;;15.90;99.90;;;;;;5038462;28;20045;-80
2023/08/17 06:15:55;;;;;;;3.50;1.10;;;17.10;99.90;;;;;;5040230;28;20087;-81
2023/08/17 06:18:21;;;;;;;4.82;1.20;;;16.00;99.90;;;;;;5054396;28;20049;-78
2023/08/17 06:23:19;;;;;;;4.22;0.85;;;16.10;99.90;;;;;;5048596;28;20045;-84
2023/08/17 06:25:45;;;;;;;4.22;1.08;;;15.40;99.90;;;;;;5047677;28;20046;-83
2023/08/17 06:28:11;;;;;;;5.00;1.52;;;16.40;99.90;;;;;;4347027;28;10000740;-81
2023/08/17 06:30:36;;;;;;;4.50;1.20;;;16.20;99.90;;;;;;5045836;28;20043;-82
2023/08/17 06:33:02;;;;;;;2.33;1.23;;;16.20;99.90;;;;;;5030372;28;21109;-82
2023/08/17 06:35:28;;;;;;;5.63;1.23;;;16.30;99.90;;;;;;5030053;28;20045;-82
2023/08/17 06:37:57;;;;;;;5.50;1.02;;;16.30;99.90;;;;;;5039642;28;20079;-82
2023/08/17 06:40:26;;;;;;;3.05;1.50;;;16.40;99.90;;;;;;5038089;28;20409;-81
2023/08/17 06:42:54;;;;;;;4.88;1.10;;;16.50;99.90;;;;;;5042516;28;20464;-81
2023/08/17 06:45:19;;;;;;;8.00;1.08;;;16.40;99.90;;;;;;5045621;28;20051;-81
2023/08/17 06:47:48;;;;;;;3.45;0.85;;;16.40;99.90;;;;;;5039138;28;20436;-86
2023/08/17 06:50:14;;;;;;;9.55;1.58;;;16.40;99.90;;;;;;5047381;28;20072;-83
2023/08/17 06:52:40;;;;;;;5.40;1.13;;;16.50;99.90;;;;;;5039870;28;20075;-84
2023/08/17 06:55:06;;;;;;;6.22;1.20;;;16.50;99.90;;;;;;5042245;28;20053;-85
2023/08/17 06:57:32;;;;;;;3.38;0.90;;;16.50;99.90;;;;;;5042755;28;20041;-81
2023/08/17 06:59:57;;;;;;;4.72;0.88;;;16.40;99.90;;;;;;5049905;28;20128;-85
2023/08/17 07:02:23;;;;;;;5.43;1.05;;;16.60;99.90;;;;;;5045841;28;20563;-82
2023/08/17 07:04:49;;;;;;;5.63;1.10;;;17.40;99.90;;;;;;5042482;28;20044;-84
2023/08/17 07:07:14;;;;;;;1.80;1.02;;;16.70;99.90;;;;;;5049466;28;20120;-83
2023/08/17 07:09:40;;;;;;;3.05;1.10;;;16.70;99.90;;;;;;5049713;28;20106;-83
2023/08/17 07:12:06;;;;;;;3.05;0.68;;;16.80;99.90;;;;;;5035586;28;20056;-81
2023/08/17 07:14:38;;;;;;;3.88;0.90;;;16.70;99.90;;;;;;5060679;28;20048;-83
2023/08/17 07:17:04;;;;;;;7.22;1.02;;;16.80;99.90;;;;;;5052401;28;20044;-82
2023/08/17 07:19:30;;;;;;;4.03;1.08;;;16.80;99.90;;;;;;5047498;28;20063;-83
2023/08/17 07:21:55;;;;;;;4.88;0.95;;;16.80;99.90;;;;;;5047816;28;20045;-82
2023/08/17 07:24:21;;;;;;;4.18;0.93;;;16.90;99.90;;;;;;5049270;28;20624;-84
2023/08/17 07:26:47;;;;;;;3.90;1.00;;;16.90;99.90;;;;;;5044233;28;20044;-82
2023/08/17 07:29:12;;;;;;;3.85;0.65;;;17.00;99.90;;;;;;5039298;28;20033;-84
2023/08/17 07:31:38;;;;;;;4.35;1.08;;;17.60;99.90;;;;;;5052108;28;20044;-87
2023/08/17 07:34:05;;;;;;;5.22;1.02;;;17.10;99.90;;;;;;5046681;28;20044;-83
2023/08/17 07:36:32;;;;;;;3.42;0.82;;;17.10;99.90;;;;;;5031157;28;20048;-84
2023/08/17 07:38:58;;;;;;;3.33;0.82;;;17.10;99.90;;;;;;5045145;28;20076;-82
2023/08/17 07:41:23;;;;;;;5.15;0.95;;;17.10;99.90;;;;;;5049629;28;20079;-84
2023/08/17 07:43:49;;;;;;;2.45;0.70;;;16.20;99.90;;;;;;5052141;28;20412;-84
2023/08/17 07:46:15;;;;;;;6.28;0.80;;;17.20;99.90;;;;;;5050187;28;20127;-82
2023/08/17 07:48:40;;;;;;;4.22;0.73;;;17.20;99.90;;;;;;5043312;28;20408;-83
2023/08/17 07:51:06;;;;;;;3.03;1.02;;;17.20;99.90;;;;;;5047306;28;20098;-84
2023/08/17 07:53:32;;;;;;;1.98;0.80;;;17.80;99.90;;;;;;5041191;28;20098;-84
2023/08/17 07:55:58;;;;;;;8.48;0.70;;;17.30;99.90;;;;;;5049580;28;20072;-85
2023/08/17 07:58:23;;;;;;;4.50;0.93;;;17.20;99.90;;;;;;5039443;28;20526;-82
2023/08/17 08:00:49;;;;;;;5.45;0.80;;;17.50;99.90;;;;;;5046666;28;20033;-84
2023/08/17 08:03:15;;;;;;;3.67;0.88;;;17.20;99.90;;;;;;5046871;28;20752;-85
2023/08/17 08:05:40;;;;;;;2.72;0.85;;;17.20;99.90;;;;;;5050875;28;20052;-82
2023/08/17 08:08:06;;;;;;;2.22;0.70;;;17.20;99.90;;;;;;5051121;28;20071;-82
2023/08/17 08:10:32;;;;;;;2.67;0.65;;;17.20;99.90;;;;;;5050588;28;20086;-84
2023/08/17 08:12:58;;;;;;;5.28;1.08;;;17.30;99.90;;;;;;5042175;28;20029;-85
2023/08/17 08:15:23;;;;;;;4.07;0.40;;;17.30;99.90;;;;;;5050718;28;20477;-84
2023/08/17 08:17:49;;;;;;;4.60;0.47;;;17.30;99.90;;;;;;5056283;28;20040;-81
2023/08/17 08:20:16;;;;;;;3.53;0.50;;;17.30;99.90;;;;;;5050354;28;20037;-85
2023/08/17 08:22:41;;;;;;;2.88;0.47;;;17.30;99.90;;;;;;5046510;28;20135;-82
2023/08/17 08:25:07;;;;;;;3.53;0.73;;;17.30;99.90;;;;;;5044271;28;20141;-81
2023/08/17 08:27:33;;;;;;;2.42;0.50;;;17.40;99.90;;;;;;5039273;28;20052;-83
2023/08/17 08:29:58;;;;;;;7.18;0.70;;;17.40;99.90;;;;;;5030684;28;20548;-84
2023/08/17 08:32:24;;;;;;;1.15;0.50;;;17.40;99.90;;;;;;5044461;28;20053;-88
2023/08/17 08:34:50;;;;;;;4.78;0.70;;;17.40;99.90;;;;;;5040298;28;20045;-82
2023/08/17 08:37:16;;;;;;;4.28;0.60;;;17.50;99.90;;;;;;5049408;28;20044;-84
2023/08/17 08:39:50;;;;;;;3.85;0.55;;;17.50;99.90;;;;;;5024725;28;20057;-85
2023/08/17 08:42:17;;;;;;;4.32;0.63;;;17.50;99.90;;;;;;5042955;28;20049;-86
2023/08/17 08:44:43;;;;;;;4.38;0.73;;;17.60;99.90;;;;;;5045181;28;20037;-87
2023/08/17 08:47:09;;;;;;;2.13;0.95;;;17.60;99.90;;;;;;5047895;28;20059;-86
2023/08/17 08:49:39;;;;;;;3.03;0.63;;;17.60;99.90;;;;;;5039606;28;20515;-81
2023/08/17 08:52:08;;;;;;;3.60;0.68;;;17.70;99.90;;;;;;5037359;28;20099;-85
2023/08/17 08:54:37;;;;;;;3.13;0.60;;;17.70;99.90;;;;;;5045298;28;20036;-80
2023/08/17 08:57:08;;;;;;;4.75;0.88;;;17.80;99.90;;;;;;5047964;28;20041;-81
2023/08/17 08:59:35;;;;;;;3.33;0.82;;;17.80;99.90;;;;;;5048186;28;20110;-84
2023/08/17 09:02:01;;;;;;;2.00;0.75;;;17.90;99.90;;;;;;5039250;28;20049;-83
2023/08/17 09:04:28;;;;;;;4.25;0.50;;;17.90;99.90;;;;;;5034804;28;20316;-81
2023/08/17 09:06:55;;;;;;;3.67;0.52;;;18.00;99.90;;;;;;5039150;28;20052;-81
2023/08/17 09:09:21;;;;;;;5.03;0.93;;;18.00;99.90;;;;;;5040754;28;20044;-85
2023/08/17 09:11:46;;;;;;;5.82;0.55;;;18.00;99.90;;;;;;5043527;28;20040;-84
2023/08/17 09:14:12;;;;;;;4.72;0.85;;;18.00;99.90;;;;;;5030209;28;20049;-83
2023/08/17 09:16:38;;;;;;;3.80;1.08;;;18.10;99.90;;;;;;5039656;28;20091;-84
2023/08/17 09:19:05;;;;;;;2.70;0.80;;;18.10;99.90;;;;;;5044161;28;20045;-83
2023/08/17 09:21:32;;;;;;;6.63;0.90;;;18.40;99.90;;;;;;5042438;28;20379;-81
2023/08/17 09:23:58;;;;;;;5.32;0.85;;;18.20;99.90;;;;;;5048318;28;20063;-84
2023/08/17 09:26:24;;;;;;;3.53;0.50;;;18.20;99.90;;;;;;5038813;28;20037;-85
2023/08/17 09:28:56;;;;;;;6.30;0.70;;;18.20;99.90;;;;;;5049527;28;20576;-82
2023/08/17 09:31:23;;;;;;;3.20;0.60;;;18.20;99.90;;;;;;5046383;28;20041;-84
2023/08/17 09:33:52;;;;;;;3.40;0.47;;;18.30;99.90;;;;;;5046438;28;20557;-82
2023/08/17 09:36:22;;;;;;;4.60;0.68;;;18.30;99.90;;;;;;5047312;28;20560;-81
2023/08/17 09:38:52;;;;;;;2.97;0.93;;;18.40;99.90;;;;;;5047040;28;20033;-82
2023/08/17 09:41:19;;;;;;;3.00;1.02;;;18.40;99.90;;;;;;5046153;28;20523;-79
2023/08/17 09:43:46;;;;;;;3.13;0.50;;;18.50;99.90;;;;;;5037694;28;20041;-78
2023/08/17 09:46:11;;;;;;;4.63;0.65;;;18.50;99.90;;;;;;5016306;28;20044;-78
2023/08/17 09:48:37;;;;;;;4.50;0.82;;;18.50;99.90;;;;;;5047269;28;20059;-79
2023/08/17 09:51:05;;;;;;;3.92;0.68;;;18.60;99.90;;;;;;5048952;28;20548;-79
2023/08/17 09:53:35;;;;;;;6.43;0.57;;;18.70;99.90;;;;;;5045235;28;20482;-78
2023/08/17 09:56:02;;;;;;;3.25;0.70;;;18.70;99.90;;;;;;5032439;28;20143;-80
2023/08/17 09:58:28;;;;;;;4.88;0.80;;;18.80;99.90;;;;;;5043510;28;20485;-80
2023/08/17 10:00:54;;;;;;;3.25;0.80;;;18.80;99.90;;;;;;5049636;28;20045;-79
2023/08/17 10:03:21;;;;;;;3.85;0.77;;;18.80;99.90;;;;;;5048750;28;20041;-79
2023/08/17 10:06:01;;;;;;;3.60;0.77;;;18.80;99.90;;;;;;5048614;28;20037;-80
2023/08/17 10:08:30;;;;;;;2.00;0.68;;;18.90;99.90;;;;;;5039366;28;20041;-80
2023/08/17 10:10:57;;;;;;;1.67;0.60;;;19.00;99.90;;;;;;5027203;28;20052;-80
2023/08/17 10:13:42;;;;;;;4.25;0.70;;;18.90;99.90;;;;;;5029202;28;20041;-80
2023/08/17 10:16:10;;;;;;;4.45;0.82;;;19.00;99.90;;;;;;5051013;28;20048;-80
2023/08/17 10:19:01;;;;;;;1.55;0.57;;;19.00;99.90;;;;;;5040171;28;20502;-80
2023/08/17 10:21:46;;;;;;;4.05;0.70;;;19.00;99.90;;;;;;5041066;28;20041;-81
2023/08/17 10:24:13;;;;;;;1.67;0.68;;;19.00;99.90;;;;;;5049532;28;20076;-81
2023/08/17 10:26:40;;;;;;;3.30;1.00;;;19.00;99.90;;;;;;5031181;28;20037;-80
2023/08/17 10:29:07;;;;;;;2.33;0.63;;;19.20;99.90;;;;;;5076029;22;20056;-83
2023/08/17 10:31:36;;;;;;;3.08;0.47;;;19.10;99.90;;;;;;5093398;28;20039;-82
2023/08/17 10:34:02;;;;;;;2.53;0.50;;;19.10;99.90;;;;;;5090546;28;20052;-84
2023/08/17 10:36:30;;;;;;;5.90;1.02;;;19.10;99.90;;;;;;5101670;28;20028;-82
2023/08/17 10:39:18;;;;;;;3.15;0.68;;;19.20;99.90;;;;;;5092594;28;20047;-82
2023/08/17 10:41:51;;;;;;;4.63;0.82;;;19.20;99.90;;;;;;5089071;28;20071;-82
2023/08/17 10:44:42;;;;;;;5.53;0.65;;;19.20;99.90;;;;;;5090053;28;20060;-80
2023/08/17 10:47:26;;;;;;;4.80;0.77;;;19.20;99.90;;;;;;5089981;28;20074;-81
2023/08/17 10:49:57;;;;;;;3.35;1.00;;;19.30;99.90;;;;;;5090869;28;20444;-80
2023/08/17 10:52:28;;;;;;;2.83;0.88;;;19.30;99.90;;;;;;5077447;28;20051;-81
2023/08/17 10:54:57;;;;;;;4.60;0.90;;;19.40;99.90;;;;;;5053657;28;20071;-79
2023/08/17 10:57:30;;;;;;;6.47;0.82;;;19.40;99.90;;;;;;5089641;28;20044;-79
2023/08/17 11:00:26;;;;;;;3.83;0.57;;;19.40;99.90;;;;;;5089511;28;20418;-79
2023/08/17 11:02:54;;;;;;;4.28;0.75;;;19.40;99.90;;;;;;5085642;28;20127;-80
2023/08/17 11:05:58;;;;;;;4.43;0.82;;;19.50;99.90;;;;;;5090595;28;20040;-84
2023/08/17 11:08:40;;;;;;;2.42;0.85;;;19.50;99.90;;;;;;5070338;28;20533;-81
2023/08/17 11:11:13;;;;;;;5.05;1.25;;;19.60;99.90;;;;;;5085823;28;20047;-82
2023/08/17 11:13:44;;;;;;;5.03;0.93;;;19.70;99.90;;;;;;5069645;28;20062;-83
2023/08/17 11:16:12;;;;;;;9.55;5.32;;;19.80;99.90;;;;;;5093151;28;20298;-80
2023/08/17 11:18:38;;;;;;;3.08;1.10;;;19.80;99.90;;;;;;5091693;28;20036;-83
2023/08/17 11:21:06;;;;;;;3.85;0.85;;;19.90;99.90;;;;;;5071550;28;20040;-81
2023/08/17 11:23:34;;;;;;;5.18;0.75;;;19.90;99.90;;;;;;5082054;28;20044;-80
2023/08/17 11:26:00;;;;;;;5.20;1.25;;;20.00;99.90;;;;;;5069419;28;20084;-81
2023/08/17 11:28:36;;;;;;;5.93;0.60;;;20.10;99.90;;;;;;5088568;28;20040;-88
2023/08/17 11:31:03;;;;;;;6.93;0.67;;;20.20;99.90;;;;;;5051769;28;20084;-90
2023/08/17 11:33:31;;;;;;;6.38;1.05;;;20.10;99.90;;;;;;5066024;28;20375;-80
2023/08/17 11:36:05;;;;;;;2.75;0.90;;;20.20;99.90;;;;;;5092202;28;20042;-79
2023/08/17 11:38:39;;;;;;;3.97;0.85;;;20.20;99.90;;;;;;5065116;28;20063;-81
2023/08/17 11:41:06;;;;;;;3.88;1.33;;;20.20;99.90;;;;;;5106549;28;20054;-82
2023/08/17 11:43:32;;;;;;;3.95;0.90;;;20.10;99.90;;;;;;5127561;22;20563;-80
2023/08/17 11:45:59;;;;;;;2.53;1.33;;;20.10;99.90;;;;;;5113856;28;20040;-83
2023/08/17 11:48:25;;;;;;;5.65;0.98;;;20.10;99.90;;;;;;5097424;22;20056;-81
2023/08/17 11:50:52;;;;;;;3.25;1.08;;;20.10;99.90;;;;;;5081765;28;20055;-85
2023/08/17 11:53:18;;;;;;;3.30;0.77;;;20.20;99.90;;;;;;5087456;28;20048;-82
2023/08/17 11:55:43;;;;;;;3.25;1.08;;;20.20;99.90;;;;;;5102359;22;20083;-87
2023/08/17 11:58:09;;;;;;;3.97;1.17;;;20.20;99.90;;;;;;5106132;28;20044;-80
2023/08/17 12:00:39;;;;;;;3.58;0.95;;;20.20;99.90;;;;;;5103473;28;20040;-82
2023/08/17 12:03:08;;;;;;;4.97;1.40;;;20.30;99.90;;;;;;5102402;28;20068;-80
2023/08/17 12:08:14;;;;;;;3.95;1.25;;;20.30;99.90;;;;;;5124559;22;20040;-81
2023/08/17 12:10:40;;;;;;;3.95;1.23;;;20.30;99.90;;;;;;5107504;22;20039;-81
2023/08/17 12:13:12;;;;;;;3.28;0.75;;;20.40;99.90;;;;;;5087523;28;20612;-82
2023/08/17 12:15:39;;;;;;;2.60;1.00;;;20.40;99.90;;;;;;5113005;22;20052;-81
2023/08/17 12:18:05;;;;;;;3.63;0.98;;;20.30;99.90;;;;;;5088868;28;20044;-83
2023/08/17 12:20:37;;;;;;;3.38;1.33;;;20.40;99.90;;;;;;5061877;28;20074;-80
2023/08/17 12:23:05;;;;;;;2.28;0.70;;;20.40;99.90;;;;;;5083225;28;20048;-80
2023/08/17 12:25:31;;;;;;;2.90;1.10;;;20.30;99.90;;;;;;5082720;28;20120;-79
2023/08/17 12:28:02;;;;;;;5.65;1.05;;;20.30;99.90;;;;;;5085525;28;20074;-87
2023/08/17 12:30:36;;;;;;;1.73;1.10;;;20.30;99.90;;;;;;5076827;28;20063;-84
2023/08/17 12:33:02;;;;;;;3.67;1.15;;;20.30;99.90;;;;;;5080945;28;20039;-85
2023/08/17 12:35:31;;;;;;;4.57;1.92;;;20.30;99.90;;;;;;5069000;28;20058;-83
2023/08/17 12:37:56;;;;;;;4.70;1.02;;;20.10;99.90;;;;;;5081976;28;20067;-82
2023/08/17 12:40:23;;;;;;;6.28;1.20;;;20.30;99.90;;;;;;5072131;28;20084;-83
2023/08/17 12:42:49;;;;;;;4.97;1.15;;;20.20;99.90;;;;;;5082831;28;20495;-83
2023/08/17 12:45:15;;;;;;;3.55;0.90;;;20.10;99.90;;;;;;5086789;28;20040;-83
2023/08/17 12:47:41;;;;;;;3.08;1.02;;;20.30;99.90;;;;;;5077072;28;20036;-84
2023/08/17 12:50:08;;;;;;;4.93;1.15;;;20.30;99.90;;;;;;5088539;28;20039;-85
2023/08/17 12:52:34;;;;;;;7.10;1.65;;;20.30;99.90;;;;;;5079391;28;20047;-89